Time;durP1;ratioP1;P1;durP2;ratioP2;P2;SDS_P1;SDS_P2;PMS_P1;PMS_P2;Temp;Humidity;BMP_temperature;BMP_pressure;BME280_temperature;BME280_humidity;BME280_pressure;Samples;Min_cycle;Max_cycle;Signal;HPM_P1;HPM_P2
2022/07/30 00:00:08;;;;;;;4.15;3.75;;;;;;;;;;5035350;28;20562;-58
2022/07/30 00:02:59;;;;;;;;;;;;;;;;;;;;;
2022/07/30 00:05:33;;;;;;;3.65;3.35;;;;;;;;;;5034873;28;20116;-58
2022/07/30 00:08:02;;;;;;;6.32;3.58;;;;;;;;;;5034512;28;20088;-58
2022/07/30 00:10:38;;;;;;;3.78;2.97;;;;;;;;;;5034544;28;20044;-58
2022/07/30 00:13:18;;;;;;;4.63;3.47;;;;;;;;;;5035014;28;20029;-58
2022/07/30 00:15:47;;;;;;;4.03;3.53;;;;;;;;;;5054789;28;20479;-58
2022/07/30 00:18:20;;;;;;;4.13;3.67;;;;;;;;;;5054833;28;20021;-58
2022/07/30 00:20:53;;;;;;;4.22;3.67;;;;;;;;;;5054021;28;20025;-58
2022/07/30 00:23:46;;;;;;;7.22;3.50;;;;;;;;;;5054308;28;20048;-58
2022/07/30 00:26:29;;;;;;;;;;;;;;;;;;;;;
2022/07/30 00:31:48;;;;;;;4.03;3.03;;;;;;;;;;5054693;28;20083;-58
2022/07/30 00:34:24;;;;;;;4.55;3.85;;;;;;;;;;5055231;28;20021;-58
2022/07/30 00:37:00;;;;;;;6.30;4.07;;;;;;;;;;5055479;28;20017;-58
2022/07/30 00:39:49;;;;;;;5.35;3.60;;;;;;;;;;5055339;28;20025;-58
2022/07/30 00:42:42;;;;;;;7.93;4.93;;;;;;;;;;5054970;28;20151;-58
2022/07/30 00:45:26;;;;;;;5.05;4.30;;;;;;;;;;5053677;28;20124;-58
2022/07/30 00:47:57;;;;;;;4.50;4.03;;;;;;;;;;5055000;28;20485;-58
2022/07/30 00:50:29;;;;;;;5.50;4.65;;;;;;;;;;5055857;28;20041;-58
2022/07/30 00:53:14;;;;;;;5.60;5.05;;;;;;;;;;5054774;28;20013;-58
2022/07/30 00:55:41;;;;;;;5.82;5.22;;;;;;;;;;5053898;28;20028;-58
2022/07/30 00:58:19;;;;;;;9.15;5.43;;;;;;;;;;5054673;28;20044;-58
2022/07/30 01:01:05;;;;;;;14.27;6.25;;;;;;;;;;5052925;28;20493;-58
2022/07/30 01:03:38;;;;;;;6.18;4.85;;;;;;;;;;5054787;28;20025;-58
2022/07/30 01:09:04;;;;;;;5.32;4.45;;;;;;;;;;5055653;28;20040;-58
2022/07/30 01:11:43;;;;;;;5.40;4.57;;;;;;;;;;5053745;28;20104;-58
2022/07/30 01:14:09;;;;;;;5.50;4.43;;;;;;;;;;5045136;28;20029;-58
2022/07/30 01:16:41;;;;;;;5.05;4.07;;;;;;;;;;5034738;28;20026;-58
2022/07/30 01:22:12;;;;;;;4.88;3.85;;;;;;;;;;5034340;28;20499;-58
2022/07/30 01:28:02;;;;;;;4.55;4.15;;;;;;;;;;5051409;28;20021;-58
2022/07/30 01:30:39;;;;;;;5.80;4.35;;;;;;;;;;5034983;28;20071;-58
2022/07/30 01:36:01;;;;;;;6.60;3.85;;;;;;;;;;5036277;28;20175;-58
2022/07/30 01:38:44;;;;;;;7.97;5.00;;;;;;;;;;5032461;28;20073;-58
2022/07/30 01:41:18;;;;;;;5.85;4.55;;;;;;;;;;5033544;28;20356;-58
2022/07/30 01:43:53;;;;;;;5.88;4.72;;;;;;;;;;5034666;28;20032;-58
2022/07/30 01:46:32;;;;;;;5.07;4.00;;;;;;;;;;5035544;28;20462;-58
2022/07/30 01:49:02;;;;;;;5.93;5.07;;;;;;;;;;5033534;28;20091;-58
2022/07/30 01:51:39;;;;;;;4.43;3.97;;;;;;;;;;5033381;28;20033;-58
2022/07/30 01:54:45;;;;;;;6.32;4.78;;;;;;;;;;5034130;28;20095;-58
2022/07/30 01:57:28;;;;;;;5.30;4.05;;;;;;;;;;5034486;28;20055;-58
2022/07/30 02:00:20;;;;;;;4.85;3.97;;;;;;;;;;5033406;28;20072;-58
2022/07/30 02:02:47;;;;;;;4.30;3.83;;;;;;;;;;5032770;28;20479;-58
2022/07/30 02:05:42;;;;;;;5.03;4.00;;;;;;;;;;5032333;28;20053;-58
2022/07/30 02:08:30;;;;;;;6.43;4.53;;;;;;;;;;5033978;28;20410;-58
2022/07/30 02:14:16;;;;;;;5.00;4.40;;;;;;;;;;5042341;28;20378;-58
2022/07/30 02:16:57;;;;;;;4.38;3.97;;;;;;;;;;5053902;28;20025;-58
2022/07/30 02:19:41;;;;;;;4.18;3.78;;;;;;;;;;5054433;28;20037;-58
2022/07/30 02:22:15;;;;;;;6.57;4.05;;;;;;;;;;5052796;28;20039;-58
2022/07/30 02:27:48;;;;;;;5.60;3.93;;;;;;;;;;5057364;28;20029;-58
2022/07/30 02:30:30;;;;;;;5.95;4.40;;;;;;;;;;5052659;28;20155;-58
2022/07/30 02:33:11;;;;;;;7.38;3.85;;;;;;;;;;5057978;28;20057;-58
2022/07/30 02:35:40;;;;;;;;;;;;;;;;;;5058104;28;20040;-58
2022/07/30 02:38:36;;;;;;;;;;;;;;;;;;;;;
2022/07/30 02:41:27;;;;;;;4.88;3.83;;;;;;;;;;5055960;28;20108;-58
2022/07/30 02:43:54;;;;;;;4.20;3.67;;;;;;;;;;5057135;28;20021;-58
2022/07/30 02:46:49;;;;;;;4.57;4.03;;;;;;;;;;5056990;28;20036;-58
2022/07/30 02:49:26;;;;;;;5.47;3.75;;;;;;;;;;5035310;28;20044;-58
2022/07/30 02:52:23;;;;;;;;;;;;;;;;;;;;;
2022/07/30 02:54:52;;;;;;;11.73;3.70;;;;;;;;;;5055824;28;20039;-58
2022/07/30 02:57:51;;;;;;;;;;;;;;;;;;;;;
2022/07/30 03:00:23;;;;;;;4.82;4.35;;;;;;;;;;5054793;28;20104;-58
2022/07/30 03:02:52;;;;;;;4.80;3.80;;;;;;;;;;5039574;28;20033;-58
2022/07/30 03:05:28;;;;;;;4.63;3.92;;;;;;;;;;5055313;28;20059;-58
2022/07/30 03:08:29;;;;;;;5.43;4.93;;;;;;;;;;5056509;28;20033;-58
2022/07/30 03:14:13;;;;;;;6.18;4.88;;;;;;;;;;5056852;28;20456;-58
2022/07/30 03:16:54;;;;;;;5.10;4.65;;;;;;;;;;5036786;28;20030;-58
2022/07/30 03:19:29;;;;;;;5.30;4.35;;;;;;;;;;5036288;28;20387;-58
2022/07/30 03:21:58;;;;;;;6.68;5.20;;;;;;;;;;5035801;28;20030;-58
2022/07/30 03:24:28;;;;;;;5.87;5.23;;;;;;;;;;5036226;28;20029;-58
2022/07/30 03:27:18;;;;;;;5.90;4.43;;;;;;;;;;5036653;28;20029;-58
2022/07/30 03:33:05;;;;;;;5.07;4.57;;;;;;;;;;5031494;28;20066;-57
2022/07/30 03:35:53;;;;;;;5.22;4.72;;;;;;;;;;5032549;28;20064;-57
2022/07/30 03:38:41;;;;;;;6.80;4.57;;;;;;;;;;5034048;28;20080;-58
2022/07/30 03:41:20;;;;;;;6.97;5.35;;;;;;;;;;5030785;28;20655;-58
2022/07/30 03:44:07;;;;;;;6.60;4.65;;;;;;;;;;5033600;28;20497;-58
2022/07/30 03:46:38;;;;;;;5.07;4.38;;;;;;;;;;5033233;28;20049;-58
2022/07/30 03:49:14;;;;;;;4.47;3.85;;;;;;;;;;5032550;28;20472;-58
2022/07/30 03:51:47;;;;;;;7.38;4.70;;;;;;;;;;5032676;28;20471;-58
2022/07/30 03:54:36;;;;;;;7.00;4.32;;;;;;;;;;5032188;28;20049;-57
2022/07/30 03:57:10;;;;;;;7.10;5.43;;;;;;;;;;5032104;28;20142;-57
2022/07/30 03:59:44;;;;;;;7.50;5.43;;;;;;;;;;5034362;28;20141;-58
2022/07/30 04:02:28;;;;;;;;;;;;;;;;;;;;;
2022/07/30 04:05:12;;;;;;;9.55;4.38;;;;;;;;;;5033166;28;20034;-58
2022/07/30 04:07:42;;;;;;;4.93;3.72;;;;;;;;;;5033461;28;20112;-58
2022/07/30 04:10:31;;;;;;;5.50;4.90;;;;;;;;;;5041910;28;20075;-58
2022/07/30 04:13:06;;;;;;;4.57;3.90;;;;;;;;;;5070449;28;20024;-58
2022/07/30 04:15:46;;;;;;;8.40;4.28;;;;;;;;;;5050668;28;20029;-58
2022/07/30 04:19:24;;;;;;;11.23;5.07;;;;;;;;;;5033689;28;20112;-58
2022/07/30 04:21:22;;;;;;;5.65;4.05;;;;;;;;;;5053758;28;20036;-58
2022/07/30 04:23:57;;;;;;;8.02;4.38;;;;;;;;;;5051716;28;20017;-58
2022/07/30 04:26:26;;;;;;;4.85;4.10;;;;;;;;;;5034812;28;20079;-58
2022/07/30 04:29:13;;;;;;;4.70;4.18;;;;;;;;;;5052542;28;20037;-58
2022/07/30 04:31:47;;;;;;;6.18;4.70;;;;;;;;;;5051978;28;20064;-57
2022/07/30 04:34:22;;;;;;;5.50;4.55;;;;;;;;;;5052862;28;20097;-58
2022/07/30 04:36:55;;;;;;;4.85;4.38;;;;;;;;;;5043195;28;20044;-58
2022/07/30 04:39:24;;;;;;;5.90;4.65;;;;;;;;;;5031346;28;20049;-58
2022/07/30 04:41:56;;;;;;;7.45;4.38;;;;;;;;;;5030097;28;20064;-58
2022/07/30 04:44:28;;;;;;;5.95;4.50;;;;;;;;;;5032723;28;20021;-58
2022/07/30 04:52:58;;;;;;;5.38;4.45;;;;;;;;;;5050563;28;20037;-58
2022/07/30 04:55:36;;;;;;;7.00;4.43;;;;;;;;;;5050791;28;20025;-58
2022/07/30 04:58:03;;;;;;;6.57;4.78;;;;;;;;;;5031386;28;20041;-58
2022/07/30 05:00:41;;;;;;;6.72;4.55;;;;;;;;;;5031232;28;20426;-58
2022/07/30 05:03:38;;;;;;;;;;;;;;;;;;;;;
2022/07/30 05:06:17;;;;;;;4.65;4.00;;;;;;;;;;5034230;28;20026;-58
2022/07/30 05:08:55;;;;;;;4.63;3.85;;;;;;;;;;5052271;28;20017;-58
2022/07/30 05:11:40;;;;;;;5.28;4.15;;;;;;;;;;5051460;28;20294;-58
2022/07/30 05:14:24;;;;;;;5.72;4.97;;;;;;;;;;5041548;28;20017;-58
2022/07/30 05:16:59;;;;;;;4.75;4.22;;;;;;;;;;5040022;28;20071;-58
2022/07/30 05:19:28;;;;;;;6.28;3.67;;;;;;;;;;5051817;28;20075;-58
2022/07/30 05:22:06;;;;;;;4.40;4.00;;;;;;;;;;5050975;28;20024;-58
2022/07/30 05:24:35;;;;;;;5.00;4.50;;;;;;;;;;5052087;28;20521;-58
2022/07/30 05:27:07;;;;;;;8.48;4.38;;;;;;;;;;5049352;28;20021;-58
2022/07/30 05:29:58;;;;;;;9.70;4.88;;;;;;;;;;5051475;28;20049;-58
2022/07/30 05:32:40;;;;;;;4.53;3.90;;;;;;;;;;5050986;28;20470;-58
2022/07/30 05:35:28;;;;;;;7.10;4.45;;;;;;;;;;5051808;28;20514;-58
2022/07/30 05:38:06;;;;;;;8.38;3.90;;;;;;;;;;5034531;28;20025;-58
2022/07/30 05:40:40;;;;;;;14.10;4.18;;;;;;;;;;5029927;28;20356;-58
2022/07/30 05:43:09;;;;;;;7.18;4.20;;;;;;;;;;5031947;28;20065;-58
2022/07/30 05:45:49;;;;;;;8.20;4.78;;;;;;;;;;5016189;28;20036;-58
2022/07/30 05:48:34;;;;;;;;;;;;;;;;;;5031418;28;20088;-58
2022/07/30 05:51:13;;;;;;;4.15;3.75;;;;;;;;;;5031128;28;19913;-58
2022/07/30 05:54:02;;;;;;;5.53;5.03;;;;;;;;;;5040651;28;20036;-58
2022/07/30 05:56:42;;;;;;;5.85;4.53;;;;;;;;;;5039223;28;20090;-58
2022/07/30 05:59:39;;;;;;;6.10;4.53;;;;;;;;;;5050361;28;20033;-58
2022/07/30 06:02:14;;;;;;;6.40;3.97;;;;;;;;;;5043299;28;20610;-58
2022/07/30 06:04:51;;;;;;;8.48;4.82;;;;;;;;;;5052231;28;20501;-58
2022/07/30 06:07:31;;;;;;;5.63;4.93;;;;;;;;;;5041864;28;20423;-58
2022/07/30 06:10:28;;;;;;;6.22;4.60;;;;;;;;;;5036834;28;20037;-58
2022/07/30 06:13:00;;;;;;;4.50;4.10;;;;;;;;;;5042918;28;20037;-58
2022/07/30 06:15:56;;;;;;;8.10;4.78;;;;;;;;;;5042768;28;20034;-58
2022/07/30 06:18:32;;;;;;;10.70;4.25;;;;;;;;;;5039525;28;20029;-58
2022/07/30 06:21:05;;;;;;;4.90;4.25;;;;;;;;;;5046977;28;20025;-58
2022/07/30 06:26:42;;;;;;;6.97;4.30;;;;;;;;;;5052796;28;20037;-58
2022/07/30 06:29:20;;;;;;;5.43;4.53;;;;;;;;;;5048576;28;20044;-58
2022/07/30 06:32:05;;;;;;;8.45;5.00;;;;;;;;;;5049164;28;20111;-58
2022/07/30 06:34:39;;;;;;;5.00;3.88;;;;;;;;;;5052930;28;20431;-58
2022/07/30 06:37:08;;;;;;;5.90;4.90;;;;;;;;;;5049848;28;20044;-58
2022/07/30 06:39:46;;;;;;;5.50;4.73;;;;;;;;;;5053038;28;20033;-58
2022/07/30 06:42:21;;;;;;;6.65;4.50;;;;;;;;;;5050870;28;20279;-58
2022/07/30 06:44:54;;;;;;;8.18;4.88;;;;;;;;;;5046339;28;20444;-58
2022/07/30 06:47:27;;;;;;;5.35;4.28;;;;;;;;;;5052004;28;20060;-58
2022/07/30 06:50:07;;;;;;;7.75;4.47;;;;;;;;;;5050540;28;20064;-58
2022/07/30 06:52:52;;;;;;;4.85;3.70;;;;;;;;;;5051348;28;20104;-58
2022/07/30 06:58:31;;;;;;;4.65;4.00;;;;;;;;;;5047004;28;20044;-58
2022/07/30 07:04:17;;;;;;;6.75;4.28;;;;;;;;;;5044867;28;20040;-58
2022/07/30 07:06:53;;;;;;;5.93;4.70;;;;;;;;;;5051138;28;20522;-58
2022/07/30 07:09:24;;;;;;;5.65;3.83;;;;;;;;;;5046815;28;20449;-58
2022/07/30 07:12:25;;;;;;;5.47;4.53;;;;;;;;;;5053107;28;20068;-59
2022/07/30 07:17:59;;;;;;;5.97;3.95;;;;;;;;;;5049839;28;20032;-58
2022/07/30 07:20:35;;;;;;;5.07;4.57;;;;;;;;;;5045998;28;20558;-59
2022/07/30 07:23:09;;;;;;;6.25;3.75;;;;;;;;;;5040337;28;20031;-59
2022/07/30 07:28:49;;;;;;;5.43;4.47;;;;;;;;;;5048427;28;20500;-59
2022/07/30 07:31:18;;;;;;;3.63;2.97;;;;;;;;;;5045264;28;20387;-59
2022/07/30 07:34:15;;;;;;;5.30;3.92;;;;;;;;;;5045470;28;20064;-59
2022/07/30 07:36:59;;;;;;;7.70;5.03;;;;;;;;;;5050161;28;20029;-59
2022/07/30 07:39:48;;;;;;;6.60;3.53;;;;;;;;;;5044396;28;20036;-59
2022/07/30 07:42:41;;;;;;;4.50;4.10;;;;;;;;;;5049474;28;20032;-59
2022/07/30 07:45:16;;;;;;;5.05;3.78;;;;;;;;;;5041056;28;20629;-59
2022/07/30 07:47:58;;;;;;;5.53;4.15;;;;;;;;;;5041529;28;20098;-59
2022/07/30 07:50:37;;;;;;;5.60;3.65;;;;;;;;;;5048668;28;20037;-59
2022/07/30 07:53:29;;;;;;;5.30;4.10;;;;;;;;;;5041023;28;20021;-59
2022/07/30 07:56:19;;;;;;;4.78;3.70;;;;;;;;;;5040957;28;20395;-59
2022/07/30 07:59:04;;;;;;;5.10;3.70;;;;;;;;;;5050427;28;20124;-59
2022/07/30 08:01:45;;;;;;;4.60;3.17;;;;;;;;;;5045316;28;20029;-59
2022/07/30 08:04:14;;;;;;;;;;;;;;;;;;5041695;28;20129;-59
2022/07/30 08:06:40;;;;;;;5.90;3.40;;;;;;;;;;5041419;28;19908;-59
2022/07/30 08:12:07;;;;;;;4.15;3.17;;;;;;;;;;5049736;28;20036;-59
2022/07/30 08:15:04;;;;;;;4.88;3.28;;;;;;;;;;5042605;28;20071;-59
2022/07/30 08:17:42;;;;;;;4.40;3.33;;;;;;;;;;5041233;28;20135;-59
2022/07/30 08:20:12;;;;;;;4.45;3.08;;;;;;;;;;5034439;28;20037;-59
2022/07/30 08:22:57;;;;;;;6.10;3.05;;;;;;;;;;5040496;28;20110;-59
2022/07/30 08:25:39;;;;;;;3.50;3.20;;;;;;;;;;5033525;28;20033;-59
2022/07/30 08:28:08;;;;;;;4.88;3.13;;;;;;;;;;5041208;28;20059;-59
2022/07/30 08:30:56;;;;;;;2.97;2.67;;;;;;;;;;5044955;28;20081;-59
2022/07/30 08:33:28;;;;;;;3.20;2.55;;;;;;;;;;5042896;28;20032;-59
2022/07/30 08:35:57;;;;;;;8.45;4.18;;;;;;;;;;5046759;28;20064;-59
2022/07/30 08:38:26;;;;;;;5.07;3.10;;;;;;;;;;5048144;28;20418;-59
2022/07/30 08:41:03;;;;;;;6.47;4.05;;;;;;;;;;5050124;28;20033;-59
2022/07/30 08:43:38;;;;;;;7.78;4.13;;;;;;;;;;5052002;28;20032;-59
2022/07/30 08:46:18;;;;;;;4.18;3.05;;;;;;;;;;5052471;28;20040;-59
2022/07/30 08:52:07;;;;;;;3.97;2.50;;;;;;;;;;5051752;28;20346;-59
2022/07/30 08:55:00;;;;;;;8.20;3.45;;;;;;;;;;5032348;28;20033;-59
2022/07/30 08:57:39;;;;;;;5.32;3.67;;;;;;;;;;5032424;28;20029;-59
2022/07/30 09:00:15;;;;;;;4.70;3.13;;;;;;;;;;5030643;28;20140;-59
2022/07/30 09:02:55;;;;;;;5.78;2.58;;;;;;;;;;5038325;28;20028;-59
2022/07/30 09:05:45;;;;;;;;;;;;;;;;;;;;;
2022/07/30 09:08:14;;;;;;;6.28;3.40;;;;;;;;;;5051649;28;20043;-59
2022/07/30 09:10:44;;;;;;;4.15;2.58;;;;;;;;;;5049922;28;20041;-59
2022/07/30 09:13:40;;;;;;;3.58;2.42;;;;;;;;;;5043816;28;20026;-59
2022/07/30 09:16:21;;;;;;;4.63;2.47;;;;;;;;;;5052091;28;20033;-59
2022/07/30 09:19:01;;;;;;;;;;;;;;;;;;;;;
2022/07/30 09:21:36;;;;;;;2.88;2.25;;;;;;;;;;5040822;28;20033;-59
2022/07/30 09:24:10;;;;;;;4.15;2.67;;;;;;;;;;5050970;28;20024;-59
2022/07/30 09:27:29;;;;;;;4.38;3.17;;;;;;;;;;5052075;28;20124;-59
2022/07/30 09:30:01;;;;;;;3.25;2.95;;;;;;;;;;5048456;28;20604;-59
2022/07/30 09:32:49;;;;;;;3.75;2.50;;;;;;;;;;5047249;28;20037;-59
2022/07/30 09:35:27;;;;;;;5.75;2.80;;;;;;;;;;5030564;28;20447;-59
2022/07/30 09:38:38;;;;;;;3.78;2.38;;;;;;;;;;5031935;28;20025;-59
2022/07/30 09:41:04;;;;;;;3.05;2.53;;;;;;;;;;5035344;28;20026;-59
2022/07/30 09:43:36;;;;;;;3.95;2.60;;;;;;;;;;5025712;28;20461;-60
2022/07/30 09:46:02;;;;;;;4.80;2.65;;;;;;;;;;5040293;28;20025;-60
2022/07/30 09:49:00;;;;;;;5.38;2.90;;;;;;;;;;5036520;28;20471;-60
2022/07/30 09:51:52;;;;;;;2.83;2.40;;;;;;;;;;5043050;28;20045;-60
2022/07/30 09:54:19;;;;;;;4.55;2.78;;;;;;;;;;5041754;28;20034;-60
2022/07/30 09:56:46;;;;;;;2.78;2.33;;;;;;;;;;5035980;28;20091;-60
2022/07/30 09:59:37;;;;;;;9.40;2.53;;;;;;;;;;5037674;28;20035;-60
2022/07/30 10:02:06;;;;;;;;;;;;;;;;;;5041810;28;20478;-60
2022/07/30 10:04:42;;;;;;;2.85;1.98;;;;;;;;;;5045190;28;20364;-60
2022/07/30 10:07:18;;;;;;;5.75;2.00;;;;;;;;;;5052493;28;20048;-60
2022/07/30 10:09:47;;;;;;;4.20;2.38;;;;;;;;;;5052907;28;20041;-60
2022/07/30 10:12:33;;;;;;;;;;;;;;;;;;;;;
2022/07/30 10:15:03;;;;;;;2.72;2.35;;;;;;;;;;5048555;28;20390;-60
2022/07/30 10:17:41;;;;;;;4.88;2.20;;;;;;;;;;5049331;28;20032;-60
2022/07/30 10:20:22;;;;;;;2.58;1.95;;;;;;;;;;5049824;28;20033;-60
2022/07/30 10:23:17;;;;;;;3.55;2.00;;;;;;;;;;5045877;28;20033;-60
2022/07/30 10:25:46;;;;;;;2.28;1.70;;;;;;;;;;5042294;28;20414;-60
2022/07/30 10:28:36;;;;;;;2.87;2.13;;;;;;;;;;5032679;28;20087;-60
2022/07/30 10:31:14;;;;;;;5.05;2.40;;;;;;;;;;5032654;28;20041;-60
2022/07/30 10:36:47;;;;;;;3.20;1.83;;;;;;;;;;5053042;28;20056;-60
2022/07/30 10:39:39;;;;;;;2.47;1.60;;;;;;;;;;5047353;28;20497;-60
2022/07/30 10:42:18;;;;;;;3.15;2.00;;;;;;;;;;5037380;28;20431;-60
2022/07/30 10:44:47;;;;;;;2.63;1.88;;;;;;;;;;5043149;28;20032;-60
2022/07/30 10:47:18;;;;;;;6.07;2.57;;;;;;;;;;5058296;28;20086;-60
2022/07/30 10:50:03;;;;;;;2.22;1.65;;;;;;;;;;5056014;28;20041;-60
2022/07/30 10:52:56;;;;;;;2.88;2.17;;;;;;;;;;5042762;28;20067;-60
2022/07/30 10:55:28;;;;;;;2.97;1.90;;;;;;;;;;5043166;28;20025;-60
2022/07/30 10:57:58;;;;;;;3.35;2.45;;;;;;;;;;5038164;28;20044;-60
2022/07/30 11:00:24;;;;;;;2.58;1.95;;;;;;;;;;5051618;28;20021;-60
2022/07/30 11:03:09;;;;;;;5.53;1.80;;;;;;;;;;5044176;28;20051;-60
2022/07/30 11:05:39;;;;;;;2.60;1.77;;;;;;;;;;5046522;28;20032;-60
2022/07/30 11:08:26;;;;;;;4.32;2.10;;;;;;;;;;5036764;28;20029;-60
2022/07/30 11:10:54;;;;;;;2.55;1.23;;;;;;;;;;5034538;28;20052;-60
2022/07/30 11:13:42;;;;;;;2.85;1.85;;;;;;;;;;5045130;28;20167;-60
2022/07/30 11:16:22;;;;;;;2.63;2.00;;;;;;;;;;5045411;28;20029;-60
2022/07/30 11:19:10;;;;;;;2.67;2.03;;;;;;;;;;5040204;28;20112;-60
2022/07/30 11:21:41;;;;;;;2.55;1.45;;;;;;;;;;5040406;28;20056;-60
2022/07/30 11:24:28;;;;;;;2.63;1.83;;;;;;;;;;5042191;28;20041;-60
2022/07/30 11:26:56;;;;;;;2.55;2.05;;;;;;;;;;5036696;28;20556;-60
2022/07/30 11:29:47;;;;;;;2.97;2.00;;;;;;;;;;5047950;28;20506;-60
2022/07/30 11:32:36;;;;;;;2.67;1.80;;;;;;;;;;5021437;28;20386;-60
2022/07/30 11:35:16;;;;;;;4.30;2.17;;;;;;;;;;5039490;28;20557;-60
2022/07/30 11:37:48;;;;;;;;;;;;;;;;;;5041349;28;20388;-60
2022/07/30 11:40:18;;;;;;;3.42;1.73;;;;;;;;;;5050683;28;20271;-60
2022/07/30 11:42:44;;;;;;;3.60;2.28;;;;;;;;;;5048820;28;20445;-60
2022/07/30 11:45:22;;;;;;;2.47;1.67;;;;;;;;;;5046052;28;20477;-60
2022/07/30 11:47:59;;;;;;;2.10;1.40;;;;;;;;;;5043797;28;20079;-60
2022/07/30 11:50:28;;;;;;;3.13;1.90;;;;;;;;;;5034055;28;20512;-60
2022/07/30 11:53:13;;;;;;;2.30;1.70;;;;;;;;;;5046036;28;20029;-60
2022/07/30 11:55:41;;;;;;;4.57;1.50;;;;;;;;;;5046083;28;20014;-60
2022/07/30 11:58:24;;;;;;;2.70;2.00;;;;;;;;;;5050647;28;20064;-60
2022/07/30 12:00:50;;;;;;;2.47;1.60;;;;;;;;;;5047771;28;20493;-60
2022/07/30 12:03:30;;;;;;;5.07;2.00;;;;;;;;;;5045453;28;20025;-60
2022/07/30 12:06:08;;;;;;;4.25;1.90;;;;;;;;;;5043564;28;20356;-60
2022/07/30 12:08:43;;;;;;;3.20;1.88;;;;;;;;;;5048566;28;20094;-60
2022/07/30 12:11:10;;;;;;;2.50;1.73;;;;;;;;;;5047178;28;20036;-60
2022/07/30 12:13:36;;;;;;;2.42;1.58;;;;;;;;;;5042196;28;20017;-60
2022/07/30 12:16:12;;;;;;;3.88;2.10;;;;;;;;;;5050980;28;20487;-60
2022/07/30 12:18:44;;;;;;;2.80;1.85;;;;;;;;;;5050095;28;20407;-60
2022/07/30 12:21:24;;;;;;;2.10;1.48;;;;;;;;;;5048232;28;20108;-60
2022/07/30 12:23:54;;;;;;;2.00;1.20;;;;;;;;;;5047156;28;20029;-60
2022/07/30 12:26:31;;;;;;;2.03;1.27;;;;;;;;;;5049976;28;20025;-60
2022/07/30 12:29:01;;;;;;;1.80;1.10;;;;;;;;;;5042328;28;20045;-60
2022/07/30 12:31:29;;;;;;;2.47;1.58;;;;;;;;;;5042902;28;20040;-60
2022/07/30 12:33:59;;;;;;;4.97;2.15;;;;;;;;;;5034055;28;20127;-60
2022/07/30 12:36:25;;;;;;;;;;;;;;;;;;5033151;28;20033;-60
2022/07/30 12:38:53;;;;;;;2.60;1.50;;;;;;;;;;5049634;28;19909;-60
2022/07/30 12:41:22;;;;;;;2.53;1.67;;;;;;;;;;5042627;28;20029;-60
2022/07/30 12:43:52;;;;;;;2.78;2.00;;;;;;;;;;5037034;28;20036;-60
2022/07/30 12:46:46;;;;;;;3.60;1.70;;;;;;;;;;5048421;28;20474;-61
2022/07/30 12:49:15;;;;;;;2.58;1.38;;;;;;;;;;5040644;28;20042;-60
2022/07/30 12:51:57;;;;;;;2.28;1.33;;;;;;;;;;5027351;28;20036;-60
2022/07/30 12:54:25;;;;;;;3.25;2.00;;;;;;;;;;5040719;28;20134;-60
2022/07/30 12:56:58;;;;;;;2.40;1.40;;;;;;;;;;5047287;28;20075;-60
2022/07/30 12:59:25;;;;;;;3.75;1.58;;;;;;;;;;5030862;28;20039;-60
2022/07/30 13:01:52;;;;;;;2.60;1.67;;;;;;;;;;5046803;28;20092;-60
2022/07/30 13:04:20;;;;;;;1.85;1.17;;;;;;;;;;5039661;28;20029;-60
2022/07/30 13:07:22;;;;;;;3.70;1.58;;;;;;;;;;5028807;28;20055;-60
2022/07/30 13:10:05;;;;;;;3.42;1.70;;;;;;;;;;5045909;28;20037;-60
2022/07/30 13:12:42;;;;;;;2.63;1.77;;;;;;;;;;5032625;28;20071;-60
2022/07/30 13:15:18;;;;;;;2.30;1.50;;;;;;;;;;5045117;28;20036;-60
2022/07/30 13:17:45;;;;;;;2.30;1.63;;;;;;;;;;5047347;28;20070;-60
2022/07/30 13:20:12;;;;;;;2.63;1.60;;;;;;;;;;5047096;28;20028;-60
2022/07/30 13:22:42;;;;;;;5.35;2.15;;;;;;;;;;5030058;28;20503;-60
2022/07/30 13:25:08;;;;;;;2.77;1.50;;;;;;;;;;5030296;28;20034;-60
2022/07/30 13:27:41;;;;;;;2.40;1.35;;;;;;;;;;5030531;28;20021;-60
2022/07/30 13:30:14;;;;;;;5.53;1.70;;;;;;;;;;5030691;28;20434;-60
2022/07/30 13:32:40;;;;;;;1.98;1.23;;;;;;;;;;5031428;28;20051;-60
2022/07/30 13:35:07;;;;;;;1.88;1.13;;;;;;;;;;5043548;28;20079;-60
2022/07/30 13:37:33;;;;;;;2.30;1.65;;;;;;;;;;5050324;28;20528;-60
2022/07/30 13:40:05;;;;;;;3.10;1.40;;;;;;;;;;5049306;28;20064;-61
2022/07/30 13:42:34;;;;;;;2.30;1.30;;;;;;;;;;5050737;28;20028;-60
2022/07/30 13:45:00;;;;;;;2.17;1.50;;;;;;;;;;5046358;28;20378;-60
2022/07/30 13:47:28;;;;;;;3.13;1.55;;;;;;;;;;5032342;28;20124;-60
2022/07/30 13:49:55;;;;;;;2.03;1.55;;;;;;;;;;5030920;28;20079;-60
2022/07/30 13:52:21;;;;;;;2.28;1.52;;;;;;;;;;5031844;28;20018;-60
2022/07/30 13:54:50;;;;;;;2.33;1.50;;;;;;;;;;5032433;28;20491;-60
2022/07/30 13:57:16;;;;;;;1.67;0.98;;;;;;;;;;5028818;28;20056;-60
2022/07/30 13:59:45;;;;;;;1.98;1.20;;;;;;;;;;5033117;28;20021;-60
2022/07/30 14:02:17;;;;;;;3.20;1.65;;;;;;;;;;5050877;28;20028;-60
2022/07/30 14:05:05;;;;;;;3.85;1.70;;;;;;;;;;5050504;28;20036;-60
2022/07/30 14:07:34;;;;;;;2.15;1.35;;;;;;;;;;5049094;28;20044;-60
2022/07/30 14:10:01;;;;;;;2.42;1.73;;;;;;;;;;5047095;28;20029;-60
2022/07/30 14:12:33;;;;;;;3.20;1.67;;;;;;;;;;5051021;28;20522;-60
2022/07/30 14:15:02;;;;;;;3.28;1.70;;;;;;;;;;5049868;28;20029;-60
2022/07/30 14:17:31;;;;;;;3.55;1.73;;;;;;;;;;5044421;28;20032;-60
2022/07/30 14:20:03;;;;;;;2.75;1.45;;;;;;;;;;5050264;28;20040;-60
2022/07/30 14:22:40;;;;;;;2.42;1.35;;;;;;;;;;5051365;28;20047;-60
2022/07/30 14:25:07;;;;;;;1.90;1.20;;;;;;;;;;5039554;28;20119;-60
2022/07/30 14:27:39;;;;;;;2.50;1.50;;;;;;;;;;5054232;28;20033;-60
2022/07/30 14:30:14;;;;;;;3.00;1.63;;;;;;;;;;5055100;28;20029;-60
2022/07/30 14:32:40;;;;;;;3.33;1.60;;;;;;;;;;5064696;28;20091;-60
2022/07/30 14:35:08;;;;;;;2.63;1.67;;;;;;;;;;5049478;28;20021;-60
2022/07/30 14:37:35;;;;;;;2.67;1.30;;;;;;;;;;5050534;28;20356;-60
2022/07/30 14:40:02;;;;;;;2.63;1.60;;;;;;;;;;5043386;28;20028;-60
2022/07/30 14:42:34;;;;;;;3.20;2.08;;;;;;;;;;5047154;28;20044;-60
2022/07/30 14:45:10;;;;;;;2.45;1.70;;;;;;;;;;5041014;28;20459;-60
2022/07/30 14:47:39;;;;;;;3.33;1.50;;;;;;;;;;5046765;28;20667;-60
2022/07/30 14:50:06;;;;;;;3.17;1.53;;;;;;;;;;5041651;28;20090;-60
2022/07/30 14:52:33;;;;;;;2.47;1.73;;;;;;;;;;5039381;28;20029;-60
2022/07/30 14:55:05;;;;;;;2.70;1.35;;;;;;;;;;5041791;28;20036;-60
2022/07/30 14:57:37;;;;;;;1.95;1.48;;;;;;;;;;5052996;28;20071;-59
2022/07/30 15:00:06;;;;;;;2.40;2.00;;;;;;;;;;5052503;28;20360;-60
2022/07/30 15:02:48;;;;;;;2.10;1.33;;;;;;;;;;5040446;28;20026;-60
2022/07/30 15:05:40;;;;;;;2.10;1.60;;;;;;;;;;5034410;28;20033;-59
2022/07/30 15:08:06;;;;;;;3.15;1.58;;;;;;;;;;5034145;28;20528;-59
2022/07/30 15:10:33;;;;;;;2.20;1.33;;;;;;;;;;5031889;28;20038;-59
2022/07/30 15:12:59;;;;;;;2.05;1.42;;;;;;;;;;5034482;28;20437;-59
2022/07/30 15:15:31;;;;;;;3.35;1.45;;;;;;;;;;5034381;28;20021;-59
2022/07/30 15:18:01;;;;;;;2.00;1.30;;;;;;;;;;5031123;28;20495;-59
2022/07/30 15:20:30;;;;;;;2.13;1.23;;;;;;;;;;5031328;28;20033;-59
2022/07/30 15:22:56;;;;;;;2.28;1.40;;;;;;;;;;5040093;28;20133;-59
2022/07/30 15:25:33;;;;;;;2.28;1.13;;;;;;;;;;5031826;28;20191;-59
2022/07/30 15:28:00;;;;;;;2.75;1.58;;;;;;;;;;5032228;28;20017;-59
2022/07/30 15:30:28;;;;;;;2.88;1.55;;;;;;;;;;5031213;28;20053;-59
2022/07/30 15:33:04;;;;;;;1.65;0.98;;;;;;;;;;5034080;28;20441;-59
2022/07/30 15:35:31;;;;;;;2.10;1.25;;;;;;;;;;5044942;28;20474;-59
2022/07/30 15:38:00;;;;;;;1.48;0.93;;;;;;;;;;5052943;28;20029;-59
2022/07/30 15:40:27;;;;;;;3.03;1.60;;;;;;;;;;5052980;28;20029;-59
2022/07/30 15:42:59;;;;;;;2.22;1.33;;;;;;;;;;5051803;28;20039;-59
2022/07/30 15:45:28;;;;;;;2.78;1.60;;;;;;;;;;5052114;28;20031;-59
2022/07/30 15:47:59;;;;;;;1.80;0.88;;;;;;;;;;5053246;28;20033;-59
2022/07/30 15:50:34;;;;;;;3.45;1.45;;;;;;;;;;5051216;28;20029;-59
2022/07/30 15:53:01;;;;;;;2.17;1.33;;;;;;;;;;5043019;28;20040;-59
2022/07/30 15:55:30;;;;;;;2.17;1.17;;;;;;;;;;5031965;28;20041;-59
2022/07/30 15:57:59;;;;;;;2.00;1.40;;;;;;;;;;5034366;28;20040;-59
2022/07/30 16:00:28;;;;;;;2.40;1.63;;;;;;;;;;5043381;28;20048;-59
2022/07/30 16:02:55;;;;;;;6.55;1.58;;;;;;;;;;5046246;28;20033;-59
2022/07/30 16:05:21;;;;;;;3.10;1.80;;;;;;;;;;5031956;28;20029;-59
2022/07/30 16:07:47;;;;;;;2.58;1.60;;;;;;;;;;5031432;28;20021;-59
2022/07/30 16:10:19;;;;;;;2.25;1.40;;;;;;;;;;5029442;28;20029;-59
2022/07/30 16:12:48;;;;;;;2.10;1.50;;;;;;;;;;5030518;28;20076;-59
2022/07/30 16:15:17;;;;;;;4.13;1.55;;;;;;;;;;5048781;28;20035;-58
2022/07/30 16:17:51;;;;;;;1.80;1.10;;;;;;;;;;5027814;28;20045;-59
2022/07/30 16:20:23;;;;;;;2.28;1.45;;;;;;;;;;5028232;28;20039;-59
2022/07/30 16:22:49;;;;;;;2.95;1.48;;;;;;;;;;5028842;28;20379;-59
2022/07/30 16:25:18;;;;;;;1.50;1.05;;;;;;;;;;5030889;28;20026;-59
2022/07/30 16:27:47;;;;;;;4.13;1.10;;;;;;;;;;5030110;28;20550;-59
2022/07/30 16:30:14;;;;;;;3.30;1.45;;;;;;;;;;5028923;28;20059;-59
2022/07/30 16:32:55;;;;;;;3.15;1.45;;;;;;;;;;5037141;28;20432;-59
2022/07/30 16:35:21;;;;;;;;;;;;;;;;;;5048937;28;20434;-59
2022/07/30 16:37:47;;;;;;;2.10;1.48;;;;;;;;;;5049520;28;19908;-59
2022/07/30 16:40:14;;;;;;;1.67;1.02;;;;;;;;;;5029349;28;20407;-59
2022/07/30 16:42:42;;;;;;;3.25;1.48;;;;;;;;;;5030304;28;20030;-59
2022/07/30 16:45:11;;;;;;;2.28;1.25;;;;;;;;;;5030183;28;20100;-59
2022/07/30 16:47:37;;;;;;;2.10;1.30;;;;;;;;;;5028012;28;20051;-59